createdAt,value
2019-05-05T00:02:05.045Z,5.40
2019-05-05T00:04:54.395Z,5.40
2019-05-05T00:07:28.599Z,5.50
2019-05-05T00:09:58.746Z,5.50
2019-05-05T00:13:04.485Z,5.40
2019-05-05T00:16:11.586Z,5.40
2019-05-05T00:18:41.979Z,5.40
2019-05-05T00:21:11.898Z,5.40
2019-05-05T00:23:41.847Z,5.30
2019-05-05T00:26:11.769Z,5.30
2019-05-05T00:28:44.618Z,5.30
2019-05-05T00:31:15.143Z,5.30
2019-05-05T00:33:46.018Z,5.20
2019-05-05T00:36:15.679Z,5.20
2019-05-05T00:38:45.372Z,5.20
2019-05-05T00:41:14.994Z,5.20
2019-05-05T00:43:45.220Z,5.20
2019-05-05T00:46:20.821Z,5.20
2019-05-05T00:48:50.300Z,5.20
2019-05-05T00:51:19.729Z,5.20
2019-05-05T00:53:49.192Z,5.20
2019-05-05T00:56:18.717Z,5.20
2019-05-05T00:58:55.289Z,5.20
2019-05-05T01:01:59.067Z,5.20
2019-05-05T01:04:36.156Z,5.20
2019-05-05T01:07:05.894Z,5.30
2019-05-05T01:09:35.724Z,5.30
2019-05-05T01:12:06.940Z,5.20
2019-05-05T01:14:36.379Z,5.20
2019-05-05T01:17:06.117Z,5.20
2019-05-05T01:19:35.790Z,5.20
2019-05-05T01:22:05.331Z,5.10
2019-05-05T01:24:34.875Z,5.10
2019-05-05T01:27:04.380Z,5.10
2019-05-05T01:29:34.618Z,5.00
2019-05-05T01:32:05.822Z,5.00
2019-05-05T01:34:41.685Z,5.00
2019-05-05T01:37:18.198Z,5.10
2019-05-05T01:40:01.967Z,5.00
2019-05-05T01:42:31.507Z,4.90
2019-05-05T01:45:04.398Z,5.00
2019-05-05T01:47:34.715Z,5.00
2019-05-05T01:50:17.557Z,5.00
2019-05-05T01:52:36.122Z,5.00
2019-05-05T01:55:05.710Z,5.00
2019-05-05T01:57:35.566Z,5.00
2019-05-05T02:00:05.797Z,5.00
2019-05-05T02:02:35.299Z,5.10
2019-05-05T02:05:04.787Z,5.00
2019-05-05T02:07:34.336Z,5.00
2019-05-05T02:10:06.037Z,5.00
2019-05-05T02:12:35.383Z,5.00
2019-05-05T02:15:05.552Z,5.00
2019-05-05T02:17:35.320Z,5.10
2019-05-05T02:20:05.368Z,5.10
2019-05-05T02:22:35.638Z,5.10
2019-05-05T02:25:05.811Z,5.10
2019-05-05T02:27:35.352Z,5.10
2019-05-05T02:30:16.282Z,5.10
2019-05-05T02:33:06.094Z,5.00
2019-05-05T02:35:35.283Z,5.00
2019-05-05T02:38:06.461Z,5.00
2019-05-05T02:40:37.335Z,5.00
2019-05-05T02:43:07.924Z,5.00
2019-05-05T02:45:55.203Z,5.00
2019-05-05T02:48:26.042Z,5.00
2019-05-05T02:51:02.109Z,5.00
2019-05-05T02:53:43.981Z,5.00
2019-05-05T02:56:26.926Z,5.00
2019-05-05T02:59:00.972Z,5.00
2019-05-05T03:01:48.660Z,5.00
2019-05-05T03:04:18.906Z,5.10
2019-05-05T03:06:51.601Z,5.10
2019-05-05T03:09:24.366Z,5.10
2019-05-05T03:11:56.925Z,5.10
2019-05-05T03:14:28.358Z,5.10
2019-05-05T03:17:17.118Z,5.10
2019-05-05T03:19:46.561Z,5.10
2019-05-05T03:22:16.082Z,5.10
2019-05-05T03:24:46.332Z,5.10
2019-05-05T03:27:15.858Z,5.10
2019-05-05T03:29:45.453Z,5.10
2019-05-05T03:32:16.273Z,5.10
2019-05-05T03:34:46.173Z,5.20
2019-05-05T03:37:16.696Z,5.20
2019-05-05T03:39:53.711Z,5.20
2019-05-05T03:42:38.859Z,5.20
2019-05-05T03:45:15.733Z,5.20
2019-05-05T03:47:45.315Z,5.20
2019-05-05T03:50:15.065Z,5.20
2019-05-05T03:52:45.645Z,5.20
2019-05-05T03:55:15.110Z,5.20
2019-05-05T03:57:45.541Z,5.20
2019-05-05T04:00:23.548Z,5.20
2019-05-05T04:03:01.103Z,5.20
2019-05-05T04:05:40.751Z,5.20
2019-05-05T04:08:11.546Z,5.20
2019-05-05T04:10:41.564Z,5.10
2019-05-05T04:13:13.925Z,5.10
2019-05-05T04:15:45.320Z,5.00
2019-05-05T04:18:20.018Z,5.10
2019-05-05T04:20:49.934Z,5.10
2019-05-05T04:23:19.506Z,5.00
2019-05-05T04:25:48.983Z,5.00
2019-05-05T04:28:18.512Z,5.00
2019-05-05T04:30:48.002Z,5.00
2019-05-05T04:33:17.447Z,5.00
2019-05-05T04:35:46.887Z,5.00
2019-05-05T04:38:17.590Z,5.00
2019-05-05T04:40:47.022Z,5.10
2019-05-05T04:43:26.868Z,5.20
2019-05-05T04:45:56.430Z,5.20
2019-05-05T04:48:35.436Z,5.20
2019-05-05T04:51:10.495Z,5.20
2019-05-05T04:53:57.923Z,5.20
2019-05-05T04:56:29.930Z,5.20
2019-05-05T04:58:59.088Z,5.20
2019-05-05T05:01:28.615Z,5.30
2019-05-05T05:04:16.967Z,5.20
2019-05-05T05:06:49.759Z,5.30
2019-05-05T05:09:19.238Z,5.30
2019-05-05T05:11:48.781Z,5.40
2019-05-05T05:14:18.298Z,5.40
2019-05-05T05:16:48.266Z,5.40
2019-05-05T05:19:17.702Z,5.50
2019-05-05T05:21:58.439Z,5.50
2019-05-05T05:24:18.395Z,5.60
2019-05-05T05:26:47.865Z,5.60
2019-05-05T05:29:17.400Z,5.80
2019-05-05T05:31:46.984Z,5.80
2019-05-05T05:34:16.438Z,5.90
2019-05-05T05:36:45.974Z,5.90
2019-05-05T05:39:25.716Z,6.00
2019-05-05T05:41:55.277Z,6.10
2019-05-05T05:44:44.398Z,6.20
2019-05-05T05:47:20.474Z,6.20
2019-05-05T05:50:08.663Z,6.30
2019-05-05T05:52:38.210Z,6.30
2019-05-05T05:55:08.921Z,6.40
2019-05-05T05:57:38.446Z,6.50
2019-05-05T06:00:08.168Z,6.50
2019-05-05T06:02:37.777Z,6.60
2019-05-05T06:05:07.411Z,6.60
2019-05-05T06:07:36.986Z,6.60
2019-05-05T06:10:27.399Z,6.70
2019-05-05T06:12:56.774Z,6.80
2019-05-05T06:15:26.203Z,6.90
2019-05-05T06:17:55.769Z,6.90
2019-05-05T06:20:25.262Z,7.00
2019-05-05T06:22:54.775Z,7.00
2019-05-05T06:25:26.582Z,7.10
2019-05-05T06:27:55.485Z,7.10
2019-05-05T06:30:25.031Z,7.10
2019-05-05T06:32:54.683Z,7.10
2019-05-05T06:35:44.298Z,7.10
2019-05-05T06:38:14.167Z,7.20
2019-05-05T06:41:04.187Z,7.20
2019-05-05T06:44:03.563Z,7.20
2019-05-05T06:46:53.631Z,7.30
2019-05-05T06:49:23.781Z,7.30
2019-05-05T06:51:54.691Z,7.40
2019-05-05T06:54:24.795Z,7.40
2019-05-05T06:56:54.573Z,7.50
2019-05-05T06:59:24.466Z,7.50
2019-05-05T07:01:54.155Z,7.60
2019-05-05T07:04:24.516Z,7.60
2019-05-05T07:06:57.156Z,7.70
2019-05-05T07:09:26.957Z,7.70
2019-05-05T07:11:56.614Z,7.70
2019-05-05T07:14:26.181Z,7.80
2019-05-05T07:16:55.777Z,7.80
2019-05-05T07:19:25.332Z,7.90
2019-05-05T07:21:56.114Z,7.90
2019-05-05T07:24:25.573Z,8.00
2019-05-05T07:26:55.179Z,8.00
2019-05-05T07:29:24.734Z,8.10
2019-05-05T07:31:54.669Z,8.20
2019-05-05T07:34:25.618Z,8.20
2019-05-05T07:36:55.791Z,8.20
2019-05-05T07:39:25.235Z,8.30
2019-05-05T07:41:54.789Z,8.40
2019-05-05T07:44:29.324Z,8.60
2019-05-05T07:46:55.657Z,8.60
2019-05-05T07:49:25.238Z,8.80
2019-05-05T07:51:54.947Z,8.80
2019-05-05T07:54:24.583Z,8.80
2019-05-05T07:56:54.080Z,8.90
2019-05-05T07:59:23.963Z,8.90
2019-05-05T08:01:54.832Z,8.90
2019-05-05T08:04:24.791Z,8.90
2019-05-05T08:06:54.289Z,9.00
2019-05-05T08:09:24.949Z,9.00
2019-05-05T08:11:54.570Z,9.00
2019-05-05T08:14:24.579Z,8.90
2019-05-05T08:17:33.991Z,8.90
2019-05-05T08:20:09.989Z,8.80
2019-05-05T08:22:39.577Z,8.80
2019-05-05T08:25:34.502Z,8.80
2019-05-05T08:28:00.020Z,8.90
2019-05-05T08:30:44.168Z,8.80
2019-05-05T08:33:14.129Z,8.70
2019-05-05T08:35:44.871Z,8.60
2019-05-05T08:38:14.561Z,8.60
2019-05-05T08:40:44.416Z,8.50
2019-05-05T08:43:13.988Z,8.60
2019-05-05T08:45:44.361Z,8.80
2019-05-05T08:48:14.388Z,8.80
2019-05-05T08:50:44.394Z,8.90
2019-05-05T08:53:13.987Z,8.90
2019-05-05T08:55:44.338Z,9.00
2019-05-05T08:58:14.895Z,9.10
2019-05-05T09:00:44.719Z,9.10
2019-05-05T09:03:14.172Z,9.10
2019-05-05T09:05:43.922Z,9.10
2019-05-05T09:08:13.965Z,9.00
2019-05-05T09:10:44.797Z,9.00
2019-05-05T09:13:14.549Z,8.90
2019-05-05T09:15:44.417Z,9.00
2019-05-05T09:18:14.285Z,9.10
2019-05-05T09:20:44.550Z,9.30
2019-05-05T09:23:14.898Z,9.40
2019-05-05T09:26:15.719Z,9.40
2019-05-05T09:28:54.652Z,9.30
2019-05-05T09:31:24.121Z,9.30
2019-05-05T09:33:54.223Z,9.40
2019-05-05T09:36:24.355Z,9.50
2019-05-05T09:38:54.106Z,9.70
2019-05-05T09:41:23.652Z,9.70
2019-05-05T09:43:53.942Z,9.80
2019-05-05T09:46:23.819Z,9.80
2019-05-05T09:48:54.129Z,9.90
2019-05-05T09:51:24.238Z,10.00
2019-05-05T09:53:54.150Z,10.30
2019-05-05T09:56:23.850Z,10.50
2019-05-05T09:58:54.463Z,10.60
2019-05-05T10:01:24.645Z,10.70
2019-05-05T10:03:56.648Z,10.70
2019-05-05T10:06:26.344Z,10.70
2019-05-05T10:08:55.869Z,10.70
2019-05-05T10:11:25.411Z,10.70
2019-05-05T10:13:54.947Z,10.70
2019-05-05T10:16:24.401Z,10.90
2019-05-05T10:18:54.252Z,11.10
2019-05-05T10:21:24.603Z,11.10
2019-05-05T10:23:56.085Z,11.20
2019-05-05T10:26:25.631Z,11.20
2019-05-05T10:28:55.196Z,11.20
2019-05-05T10:31:24.810Z,11.10
2019-05-05T10:33:58.391Z,11.10
2019-05-05T10:36:27.988Z,11.10
2019-05-05T10:39:04.366Z,11.10
2019-05-05T10:41:33.840Z,11.20
2019-05-05T10:44:03.713Z,11.20
2019-05-05T10:46:34.096Z,11.20
2019-05-05T10:49:03.742Z,11.00
2019-05-05T10:51:34.582Z,10.90
2019-05-05T10:54:04.319Z,10.80
2019-05-05T10:56:34.561Z,10.80
2019-05-05T10:59:04.083Z,10.90
2019-05-05T11:01:33.638Z,11.00
2019-05-05T11:04:03.179Z,11.20
2019-05-05T11:06:32.797Z,11.30
2019-05-05T11:09:04.405Z,11.10
2019-05-05T11:11:34.417Z,11.00
2019-05-05T11:14:04.188Z,10.90
2019-05-05T11:16:33.676Z,10.90
2019-05-05T11:19:04.350Z,10.80
2019-05-05T11:21:34.206Z,10.80
2019-05-05T11:24:03.801Z,10.80
2019-05-05T11:26:33.954Z,11.00
2019-05-05T11:29:04.231Z,11.30
2019-05-05T11:31:34.399Z,11.60
2019-05-05T11:34:09.845Z,12.00
2019-05-05T11:37:07.486Z,12.30
2019-05-05T11:39:37.060Z,12.30
2019-05-05T11:42:06.612Z,12.30
2019-05-05T11:44:36.066Z,12.30
2019-05-05T11:47:05.676Z,12.30
2019-05-05T11:49:35.250Z,12.20
2019-05-05T11:52:05.785Z,12.10
2019-05-05T11:54:35.348Z,12.10
2019-05-05T11:57:04.822Z,12.00
2019-05-05T11:59:34.382Z,12.00
2019-05-05T12:02:03.967Z,11.90
2019-05-05T12:04:33.476Z,11.90
2019-05-05T12:07:04.060Z,12.00
2019-05-05T12:09:44.385Z,12.00
2019-05-05T12:12:14.294Z,12.20
2019-05-05T12:14:44.240Z,12.40
2019-05-05T12:17:15.240Z,12.60
2019-05-05T12:19:44.730Z,12.70
2019-05-05T12:22:14.191Z,12.70
2019-05-05T12:24:46.191Z,12.70
2019-05-05T12:27:27.715Z,12.50
2019-05-05T12:30:14.092Z,12.40
2019-05-05T12:32:43.853Z,12.30
2019-05-05T12:35:14.984Z,12.20
2019-05-05T12:37:44.571Z,12.20
2019-05-05T12:40:14.439Z,12.10
2019-05-05T12:42:44.069Z,12.00
2019-05-05T12:45:17.776Z,12.00
2019-05-05T12:48:21.371Z,12.10
2019-05-05T12:50:50.936Z,12.20
2019-05-05T12:53:20.760Z,12.30
2019-05-05T12:55:50.201Z,12.30
2019-05-05T12:58:19.723Z,12.40
2019-05-05T13:01:10.980Z,12.40
2019-05-05T13:03:40.443Z,12.30
2019-05-05T13:06:09.930Z,12.30
2019-05-05T13:08:39.485Z,12.20
2019-05-05T13:11:11.707Z,12.20
2019-05-05T13:13:41.189Z,12.00
2019-05-05T13:16:10.901Z,11.90
2019-05-05T13:18:40.491Z,11.80
2019-05-05T13:21:21.440Z,11.70
2019-05-05T13:24:13.721Z,11.60
2019-05-05T13:27:10.189Z,11.70
2019-05-05T13:29:36.495Z,11.70
2019-05-05T13:32:06.033Z,11.80
2019-05-05T13:34:35.604Z,11.70
2019-05-05T13:37:29.355Z,11.70
2019-05-05T13:40:09.088Z,11.60
2019-05-05T13:42:54.534Z,11.60
2019-05-05T13:45:46.246Z,11.50
2019-05-05T13:48:18.094Z,11.40
2019-05-05T13:50:53.899Z,11.40
2019-05-05T13:53:24.247Z,11.30
2019-05-05T13:55:58.374Z,11.30
2019-05-05T13:58:39.210Z,11.40
2019-05-05T14:01:16.991Z,11.40
2019-05-05T14:03:46.662Z,11.40
2019-05-05T14:06:27.421Z,11.50
2019-05-05T14:08:57.701Z,11.50
2019-05-05T14:11:29.876Z,11.40
2019-05-05T14:14:03.120Z,11.40
2019-05-05T14:16:46.699Z,11.30
2019-05-05T14:19:16.830Z,11.40
2019-05-05T14:21:48.584Z,11.40
2019-05-05T14:24:47.821Z,11.40
2019-05-05T14:27:25.491Z,11.40
2019-05-05T14:30:20.790Z,11.30
2019-05-05T14:33:00.425Z,11.30
2019-05-05T14:36:04.909Z,11.30
2019-05-05T14:38:41.635Z,11.30
2019-05-05T14:41:13.500Z,11.40
2019-05-05T14:43:44.546Z,11.50
2019-05-05T14:46:24.077Z,11.70
2019-05-05T14:48:58.181Z,11.90
2019-05-05T14:51:34.841Z,11.90
2019-05-05T14:54:05.206Z,11.90
2019-05-05T14:56:36.595Z,12.00
2019-05-05T14:59:06.765Z,12.00
2019-05-05T15:01:37.030Z,12.00
2019-05-05T15:04:13.393Z,12.20
2019-05-05T15:07:06.750Z,12.60
2019-05-05T15:09:46.960Z,13.00
2019-05-05T15:12:25.691Z,13.40
2019-05-05T15:14:55.316Z,13.40
2019-05-05T15:17:28.977Z,13.20
2019-05-05T15:20:01.443Z,13.10
2019-05-05T15:22:31.031Z,13.00
2019-05-05T15:25:00.448Z,13.00
2019-05-05T15:27:30.108Z,12.90
2019-05-05T15:30:01.818Z,12.70
2019-05-05T15:32:35.462Z,12.60
2019-05-05T15:35:14.279Z,12.40
2019-05-05T15:37:53.609Z,12.30
2019-05-05T15:40:24.731Z,12.20
2019-05-05T15:43:00.920Z,12.20
2019-05-05T15:45:35.539Z,12.20
2019-05-05T15:48:05.031Z,12.50
2019-05-05T15:50:44.759Z,12.80
2019-05-05T15:53:54.229Z,13.10
2019-05-05T15:57:03.001Z,13.30
2019-05-05T15:59:34.295Z,13.70
2019-05-05T16:02:10.871Z,14.30
2019-05-05T16:04:48.998Z,14.60
2019-05-05T16:07:28.181Z,14.60
2019-05-05T16:13:44.005Z,14.30
2019-05-05T16:16:40.391Z,14.00
2019-05-05T16:19:28.335Z,13.90
2019-05-05T16:22:05.152Z,13.60
2019-05-05T16:24:36.716Z,13.50
2019-05-05T16:27:21.214Z,13.40
2019-05-05T16:29:40.276Z,13.10
2019-05-05T16:32:21.126Z,12.80
2019-05-05T16:34:43.648Z,12.40
2019-05-05T16:37:14.291Z,11.90
2019-05-05T16:39:45.621Z,11.60
2019-05-05T16:42:15.289Z,11.30
2019-05-05T16:44:53.932Z,11.10
2019-05-05T16:47:25.622Z,10.90
2019-05-05T16:49:55.374Z,10.90
2019-05-05T16:52:35.026Z,10.90
2019-05-05T16:55:26.722Z,10.70
2019-05-05T16:58:07.102Z,10.60
2019-05-05T17:00:44.207Z,10.60
2019-05-05T17:03:14.035Z,10.50
2019-05-05T17:05:58.594Z,10.50
2019-05-05T17:08:44.194Z,10.40
2019-05-05T17:11:15.125Z,10.40
2019-05-05T17:14:11.530Z,10.40
2019-05-05T17:17:03.842Z,10.50
2019-05-05T17:19:59.720Z,10.40
2019-05-05T17:22:50.302Z,10.40
2019-05-05T17:25:30.274Z,10.50
2019-05-05T17:28:04.500Z,10.50
2019-05-05T17:30:35.631Z,10.50
2019-05-05T17:33:05.331Z,10.50
2019-05-05T17:35:54.686Z,10.60
2019-05-05T17:38:27.816Z,10.60
2019-05-05T17:41:26.174Z,10.70
2019-05-05T17:44:44.466Z,10.70
2019-05-05T17:47:44.233Z,10.70
2019-05-05T17:50:18.011Z,10.70
2019-05-05T17:53:05.023Z,10.60
2019-05-05T17:55:39.201Z,10.70
2019-05-05T17:58:08.683Z,10.70
2019-05-05T18:00:47.014Z,10.60
2019-05-05T18:03:15.867Z,10.60
2019-05-05T18:06:09.083Z,10.50
2019-05-05T18:08:47.828Z,10.50
2019-05-05T18:11:39.151Z,10.40
2019-05-05T18:14:16.099Z,10.40
2019-05-05T18:16:45.600Z,10.40
2019-05-05T18:19:15.748Z,10.50
2019-05-05T18:21:45.633Z,10.50
2019-05-05T18:24:15.722Z,10.50
2019-05-05T18:26:45.385Z,10.50
2019-05-05T18:29:14.998Z,10.50
2019-05-05T18:31:45.624Z,10.50
2019-05-05T18:34:15.663Z,10.60
2019-05-05T18:36:47.578Z,10.50
2019-05-05T18:39:17.350Z,10.50
2019-05-05T18:42:07.105Z,10.50
2019-05-05T18:44:44.408Z,10.50
2019-05-05T18:47:19.076Z,10.50
2019-05-05T18:49:48.713Z,10.50
2019-05-05T18:52:18.569Z,10.50
2019-05-05T18:54:48.178Z,10.50
2019-05-05T18:57:17.755Z,10.50
2019-05-05T18:59:47.447Z,10.50
2019-05-05T19:02:38.996Z,10.50
2019-05-05T19:05:25.034Z,10.50
2019-05-05T19:07:57.588Z,10.50
2019-05-05T19:10:27.239Z,10.40
2019-05-05T19:12:56.785Z,10.40
2019-05-05T19:15:26.434Z,10.40
2019-05-05T19:17:55.895Z,10.40
2019-05-05T19:20:37.319Z,10.40
2019-05-05T19:23:06.914Z,10.40
2019-05-05T19:25:36.472Z,10.30
2019-05-05T19:28:07.716Z,10.40
2019-05-05T19:30:40.230Z,10.30
2019-05-05T19:33:13.418Z,10.30
2019-05-05T19:35:45.072Z,10.30
2019-05-05T19:38:15.748Z,10.20
2019-05-05T19:40:46.042Z,10.20
2019-05-05T19:43:17.653Z,10.10
2019-05-05T19:45:47.741Z,10.10
2019-05-05T19:48:36.340Z,10.00
2019-05-05T19:51:14.048Z,10.00
2019-05-05T19:53:45.826Z,9.90
2019-05-05T19:56:24.822Z,9.90
2019-05-05T19:59:01.501Z,9.90
2019-05-05T20:01:37.800Z,9.90
2019-05-05T20:04:10.784Z,9.90
2019-05-05T20:06:43.988Z,9.80
2019-05-05T20:09:14.828Z,9.80
2019-05-05T20:11:49.317Z,9.80
2019-05-05T20:14:21.128Z,9.80
2019-05-05T20:17:07.801Z,9.80
2019-05-05T20:19:43.945Z,9.70
2019-05-05T20:22:16.193Z,9.70
2019-05-05T20:24:47.898Z,9.70
2019-05-05T20:27:18.727Z,9.70
2019-05-05T20:29:48.774Z,9.70
2019-05-05T20:32:34.066Z,9.70
2019-05-05T20:35:39.502Z,9.70
2019-05-05T20:38:35.436Z,9.70
2019-05-05T20:41:16.007Z,9.60
2019-05-05T20:43:45.568Z,9.90
2019-05-05T20:46:15.660Z,9.50
2019-05-05T20:48:45.318Z,9.40
2019-05-05T20:51:14.778Z,9.40
2019-05-05T20:53:45.932Z,9.40
2019-05-05T20:56:18.334Z,9.30
2019-05-05T20:58:47.973Z,9.30
2019-05-05T21:01:17.981Z,9.30
2019-05-05T21:03:49.075Z,9.20
2019-05-05T21:06:18.621Z,9.20
2019-05-05T21:08:49.949Z,9.10
2019-05-05T21:11:19.373Z,9.10
2019-05-05T21:13:48.855Z,9.10
2019-05-05T21:16:18.826Z,9.10
2019-05-05T21:18:48.724Z,9.10
2019-05-05T21:21:24.655Z,9.10
2019-05-05T21:24:01.274Z,9.10
2019-05-05T21:26:50.914Z,9.10
2019-05-05T21:29:20.657Z,9.10
2019-05-05T21:31:55.066Z,9.10
2019-05-05T21:34:25.527Z,9.10
2019-05-05T21:37:04.574Z,9.10
2019-05-05T21:39:45.401Z,9.10
2019-05-05T21:42:16.772Z,9.00
2019-05-05T21:44:49.366Z,9.00
2019-05-05T21:47:27.351Z,9.00
2019-05-05T21:50:00.161Z,9.00
2019-05-05T21:52:43.019Z,9.10
2019-05-05T21:55:38.580Z,9.10
2019-05-05T21:58:17.798Z,9.10
2019-05-05T22:01:08.189Z,9.10
2019-05-05T22:03:40.904Z,9.10
2019-05-05T22:06:17.919Z,9.10
2019-05-05T22:08:49.293Z,9.10
2019-05-05T22:11:24.287Z,9.10
2019-05-05T22:13:56.301Z,9.20
2019-05-05T22:16:26.438Z,9.10
2019-05-05T22:18:57.443Z,9.10
2019-05-05T22:21:36.813Z,9.10
2019-05-05T22:24:15.725Z,9.10
2019-05-05T22:26:47.092Z,9.10
2019-05-05T22:29:18.322Z,9.00
2019-05-05T22:31:48.111Z,9.00
2019-05-05T22:34:25.126Z,9.00
2019-05-05T22:36:54.755Z,9.00
2019-05-05T22:39:24.512Z,9.00
2019-05-05T22:42:04.814Z,8.90
2019-05-05T22:44:35.959Z,8.90
2019-05-05T22:47:05.347Z,8.90
2019-05-05T22:49:34.911Z,8.90
2019-05-05T22:52:09.578Z,8.90
2019-05-05T22:54:39.119Z,8.90
2019-05-05T22:57:08.656Z,8.90
2019-05-05T22:59:38.078Z,9.00
2019-05-05T23:02:08.129Z,9.00
2019-05-05T23:04:51.346Z,9.00
2019-05-05T23:07:25.383Z,9.00
2019-05-05T23:09:54.801Z,9.00
2019-05-05T23:12:24.465Z,9.00
2019-05-05T23:14:54.589Z,9.00
2019-05-05T23:17:43.802Z,9.00
2019-05-05T23:20:34.076Z,8.90
2019-05-05T23:23:14.792Z,8.90
2019-05-05T23:25:46.210Z,8.90
2019-05-05T23:28:16.699Z,8.90
2019-05-05T23:30:46.625Z,9.00
2019-05-05T23:33:15.995Z,8.90
2019-05-05T23:35:48.945Z,8.90
2019-05-05T23:38:18.944Z,8.90
2019-05-05T23:40:51.371Z,9.00
2019-05-05T23:43:26.347Z,8.90
2019-05-05T23:45:55.736Z,8.80
2019-05-05T23:48:25.161Z,8.80
2019-05-05T23:50:54.500Z,8.90
2019-05-05T23:53:24.879Z,8.90
2019-05-05T23:55:54.758Z,8.80
2019-05-05T23:58:24.156Z,8.80
